createdAt,value
2022-09-12T00:01:37.916Z,12.00
2022-09-12T00:04:06.811Z,11.03
2022-09-12T00:06:38.461Z,11.67
2022-09-12T00:09:12.333Z,11.30
2022-09-12T00:11:44.325Z,11.70
2022-09-12T00:14:19.291Z,11.37
2022-09-12T00:16:48.568Z,11.80
2022-09-12T00:19:17.262Z,11.80
2022-09-12T00:21:45.890Z,11.37
2022-09-12T00:24:15.930Z,11.00
2022-09-12T00:26:44.740Z,12.00
2022-09-12T00:29:18.163Z,12.27
2022-09-12T00:31:47.560Z,11.83
2022-09-12T00:34:16.271Z,12.30
2022-09-12T00:36:45.024Z,11.93
2022-09-12T00:39:18.220Z,11.87
2022-09-12T00:41:47.378Z,12.43
2022-09-12T00:44:52.602Z,12.30
2022-09-12T00:47:29.334Z,12.03
2022-09-12T00:50:07.521Z,11.87
2022-09-12T00:52:41.718Z,11.83
2022-09-12T00:55:16.954Z,12.17
2022-09-12T00:57:53.522Z,12.70
2022-09-12T01:00:25.712Z,12.17
2022-09-12T01:02:59.821Z,12.87
2022-09-12T01:05:30.847Z,12.63
2022-09-12T01:08:01.839Z,11.90
2022-09-12T01:10:34.329Z,12.10
2022-09-12T01:13:06.279Z,12.33
2022-09-12T01:15:35.967Z,12.47
2022-09-12T01:18:22.024Z,13.13
2022-09-12T01:21:25.949Z,13.10
2022-09-12T01:24:44.061Z,12.90
2022-09-12T01:27:55.755Z,12.67
2022-09-12T01:30:51.673Z,12.33
2022-09-12T01:33:39.159Z,12.77
2022-09-12T01:36:34.870Z,13.07
2022-09-12T01:39:07.318Z,12.00
2022-09-12T01:41:54.013Z,13.47
2022-09-12T01:44:38.740Z,13.27
2022-09-12T01:47:16.510Z,13.50
2022-09-12T01:49:59.966Z,12.97
2022-09-12T01:52:39.625Z,12.77
2022-09-12T01:55:16.247Z,12.90
2022-09-12T01:57:53.835Z,13.00
2022-09-12T02:00:22.638Z,11.77
2022-09-12T02:02:58.722Z,12.97
2022-09-12T02:05:34.420Z,12.07
2022-09-12T02:08:10.552Z,12.37
2022-09-12T02:10:48.434Z,12.17
2022-09-12T02:13:25.445Z,11.70
2022-09-12T02:16:01.710Z,12.70
2022-09-12T02:18:35.566Z,11.60
2022-09-12T02:21:09.283Z,12.47
2022-09-12T02:23:46.335Z,12.93
2022-09-12T02:26:24.170Z,13.07
2022-09-12T02:28:54.457Z,12.13
2022-09-12T02:31:31.493Z,12.30
2022-09-12T02:34:15.155Z,12.47
2022-09-12T02:36:56.112Z,12.57
2022-09-12T02:39:24.828Z,13.00
2022-09-12T02:41:56.623Z,12.13
2022-09-12T02:44:28.250Z,12.23
2022-09-12T02:47:03.958Z,12.40
2022-09-12T02:49:34.205Z,12.70
2022-09-12T02:52:04.012Z,12.53
2022-09-12T02:54:33.512Z,12.47
2022-09-12T02:57:02.229Z,12.70
2022-09-12T02:59:31.071Z,12.47
2022-09-12T03:02:21.355Z,12.20
2022-09-12T03:05:18.556Z,11.90
2022-09-12T03:08:25.599Z,12.57
2022-09-12T03:11:23.177Z,12.80
2022-09-12T03:14:07.325Z,12.60
2022-09-12T03:16:46.417Z,12.73
2022-09-12T03:19:25.543Z,13.20
2022-09-12T03:22:09.828Z,13.77
2022-09-12T03:24:49.313Z,13.03
2022-09-12T03:27:23.635Z,13.20
2022-09-12T03:29:53.708Z,13.50
2022-09-12T03:32:42.638Z,13.33
2022-09-12T03:35:13.735Z,12.47
2022-09-12T03:37:44.442Z,13.63
2022-09-12T03:40:13.864Z,13.07
2022-09-12T03:42:43.093Z,13.13
2022-09-12T03:45:12.723Z,14.00
2022-09-12T03:47:42.518Z,13.50
2022-09-12T03:50:11.951Z,12.83
2022-09-12T03:52:41.251Z,13.97
2022-09-12T03:55:11.985Z,14.40
2022-09-12T03:57:40.667Z,13.80
2022-09-12T04:00:11.123Z,14.00
2022-09-12T04:02:42.414Z,15.30
2022-09-12T04:05:11.187Z,14.50
2022-09-12T04:07:39.774Z,13.50
2022-09-12T04:10:10.855Z,14.33
2022-09-12T04:12:39.867Z,14.47
2022-09-12T04:15:10.719Z,14.90
2022-09-12T04:17:39.592Z,14.77
2022-09-12T04:20:09.160Z,14.63
2022-09-12T04:22:37.872Z,13.73
2022-09-12T04:25:07.914Z,14.33
2022-09-12T04:27:38.058Z,15.17
2022-09-12T04:30:09.003Z,14.93
2022-09-12T04:32:37.929Z,15.07
2022-09-12T04:35:07.183Z,15.73
2022-09-12T04:37:36.187Z,15.60
2022-09-12T04:40:05.667Z,16.97
2022-09-12T04:42:34.350Z,14.90
2022-09-12T04:45:06.303Z,15.37
2022-09-12T04:47:34.861Z,15.37
2022-09-12T04:50:06.485Z,16.10
2022-09-12T04:52:35.037Z,17.50
2022-09-12T04:55:03.634Z,15.77
2022-09-12T04:57:32.221Z,16.07
2022-09-12T05:00:07.019Z,15.93
2022-09-12T05:02:37.262Z,15.97
2022-09-12T05:05:06.907Z,15.83
2022-09-12T05:07:35.602Z,17.63
2022-09-12T05:10:05.180Z,17.70
2022-09-12T05:12:34.009Z,16.90
2022-09-12T05:15:02.638Z,16.00
2022-09-12T05:17:31.453Z,16.37
2022-09-12T05:20:01.900Z,16.23
2022-09-12T05:22:30.503Z,15.87
2022-09-12T05:24:59.065Z,16.17
2022-09-12T05:27:27.635Z,16.67
2022-09-12T05:29:56.172Z,17.33
2022-09-12T05:32:24.764Z,16.73
2022-09-12T05:34:53.438Z,15.97
2022-09-12T05:37:23.901Z,16.53
2022-09-12T05:39:52.963Z,16.67
2022-09-12T05:42:21.658Z,17.57
2022-09-12T05:44:50.293Z,16.10
2022-09-12T05:47:19.313Z,17.67
2022-09-12T05:49:48.178Z,18.10
2022-09-12T05:52:17.196Z,18.10
2022-09-12T05:54:47.624Z,18.33
2022-09-12T05:57:16.239Z,17.83
2022-09-12T05:59:45.406Z,19.07
2022-09-12T06:02:14.078Z,17.70
2022-09-12T06:04:42.689Z,17.47
2022-09-12T06:07:11.448Z,18.03
2022-09-12T06:09:40.002Z,16.10
2022-09-12T06:12:10.112Z,17.80
2022-09-12T06:14:38.934Z,18.00
2022-09-12T06:17:07.874Z,16.87
2022-09-12T06:19:36.502Z,18.00
2022-09-12T06:22:05.364Z,18.77
2022-09-12T06:24:33.960Z,19.20
2022-09-12T06:27:02.819Z,19.90
2022-09-12T06:29:33.101Z,20.07
2022-09-12T06:32:01.913Z,19.83
2022-09-12T06:34:31.052Z,19.30
2022-09-12T06:36:59.681Z,19.20
2022-09-12T06:39:28.282Z,19.20
2022-09-12T06:41:57.009Z,19.87
2022-09-12T06:44:37.452Z,21.07
2022-09-12T06:47:06.288Z,19.97
2022-09-12T06:49:35.556Z,19.53
2022-09-12T06:52:04.454Z,20.40
2022-09-12T06:54:32.982Z,20.90
2022-09-12T06:57:02.470Z,19.77
2022-09-12T06:59:31.078Z,19.03
2022-09-12T07:02:01.329Z,19.77
2022-09-12T07:04:30.514Z,19.73
2022-09-12T07:06:59.100Z,20.33
2022-09-12T07:09:27.828Z,19.93
2022-09-12T07:11:56.410Z,19.73
2022-09-12T07:14:26.113Z,17.83
2022-09-12T07:16:54.782Z,17.47
2022-09-12T07:19:25.015Z,16.53
2022-09-12T07:21:58.007Z,16.83
2022-09-12T07:24:27.368Z,15.93
2022-09-12T07:26:56.235Z,17.17
2022-09-12T07:29:36.479Z,17.40
2022-09-12T07:32:07.743Z,16.63
2022-09-12T07:34:38.153Z,17.00
2022-09-12T07:37:06.909Z,18.13
2022-09-12T07:39:35.443Z,15.80
2022-09-12T07:42:04.034Z,16.80
2022-09-12T07:44:32.803Z,16.10
2022-09-12T07:47:02.103Z,14.93
2022-09-12T07:49:30.734Z,15.40
2022-09-12T07:52:00.727Z,13.43
2022-09-12T07:54:29.293Z,12.93
2022-09-12T07:56:57.833Z,12.80
2022-09-12T07:59:50.831Z,12.00
2022-09-12T08:02:17.461Z,12.37
2022-09-12T08:04:48.384Z,11.30
2022-09-12T08:07:19.543Z,11.67
2022-09-12T08:09:48.575Z,11.73
2022-09-12T08:12:18.008Z,12.03
2022-09-12T08:14:46.594Z,11.03
2022-09-12T08:17:15.567Z,11.00
2022-09-12T08:19:44.976Z,11.63
2022-09-12T08:22:13.872Z,10.60
2022-09-12T08:24:44.529Z,11.03
2022-09-12T08:27:13.272Z,10.57
2022-09-12T08:29:42.386Z,10.17
2022-09-12T08:32:11.038Z,10.53
2022-09-12T08:34:39.639Z,9.67
2022-09-12T08:37:08.429Z,9.97
2022-09-12T08:39:37.165Z,8.87
2022-09-12T08:42:08.387Z,8.40
2022-09-12T08:45:15.361Z,7.40
2022-09-12T08:47:48.101Z,8.00
2022-09-12T08:50:20.287Z,8.30
2022-09-12T08:52:58.698Z,7.87
2022-09-12T08:55:36.466Z,7.67
2022-09-12T08:58:16.206Z,7.13
2022-09-12T09:00:59.564Z,5.70
2022-09-12T09:03:57.889Z,4.97
2022-09-12T09:07:04.259Z,5.50
2022-09-12T09:09:52.848Z,5.60
2022-09-12T09:12:36.558Z,6.50
2022-09-12T09:15:41.246Z,5.83
2022-09-12T09:18:19.839Z,5.97
2022-09-12T09:20:54.860Z,5.00
2022-09-12T09:23:30.976Z,4.90
2022-09-12T09:26:07.259Z,4.17
2022-09-12T09:28:43.612Z,4.90
2022-09-12T09:31:17.647Z,4.53
2022-09-12T09:33:51.056Z,3.83
2022-09-12T09:36:25.296Z,4.95
2022-09-12T09:39:05.919Z,4.70
2022-09-12T09:41:55.712Z,4.55
2022-09-12T09:44:24.957Z,3.75
2022-09-12T09:47:00.039Z,4.10
2022-09-12T09:49:32.992Z,3.83
2022-09-12T09:52:02.960Z,3.90
2022-09-12T09:54:40.554Z,4.00
2022-09-12T09:57:44.790Z,4.22
2022-09-12T10:00:32.077Z,4.63
2022-09-12T10:03:11.333Z,3.70
2022-09-12T10:05:50.239Z,3.70
2022-09-12T10:08:24.976Z,4.30
2022-09-12T10:11:05.092Z,3.47
2022-09-12T10:13:42.841Z,3.08
2022-09-12T10:16:23.162Z,2.70
2022-09-12T10:18:57.426Z,2.20
2022-09-12T10:21:41.336Z,2.15
2022-09-12T10:24:26.830Z,2.47
2022-09-12T10:27:07.005Z,2.90
2022-09-12T10:29:44.070Z,2.70
2022-09-12T10:32:16.258Z,2.53
2022-09-12T10:34:47.703Z,2.70
2022-09-12T10:37:27.687Z,2.90
2022-09-12T10:40:00.333Z,2.20
2022-09-12T10:42:52.017Z,2.50
2022-09-12T10:45:30.237Z,2.13
2022-09-12T10:48:06.826Z,1.90
2022-09-12T10:50:43.554Z,2.30
2022-09-12T10:53:21.571Z,2.50
2022-09-12T10:56:12.097Z,1.40
2022-09-12T10:59:14.687Z,1.48
2022-09-12T11:01:49.971Z,1.50
2022-09-12T11:04:30.544Z,1.95
2022-09-12T11:07:36.757Z,2.05
2022-09-12T11:10:22.978Z,1.90
2022-09-12T11:13:06.522Z,1.40
2022-09-12T11:15:58.004Z,1.52
2022-09-12T11:19:03.974Z,1.20
2022-09-12T11:21:53.461Z,1.38
2022-09-12T11:25:09.014Z,1.17
2022-09-12T11:28:00.303Z,1.10
2022-09-12T11:30:39.109Z,1.50
2022-09-12T11:33:47.941Z,1.58
2022-09-12T11:36:37.868Z,1.42
2022-09-12T11:39:16.699Z,1.67
2022-09-12T11:41:52.543Z,1.33
2022-09-12T11:44:26.761Z,1.20
2022-09-12T11:46:55.661Z,1.10
2022-09-12T11:49:35.776Z,1.08
2022-09-12T11:52:14.694Z,1.00
2022-09-12T11:54:53.549Z,1.25
2022-09-12T11:57:32.774Z,1.20
2022-09-12T12:00:07.863Z,1.13
2022-09-12T12:02:45.171Z,1.10
2022-09-12T12:05:23.717Z,1.40
2022-09-12T12:07:56.912Z,1.30
2022-09-12T12:10:34.007Z,1.10
2022-09-12T12:13:13.992Z,1.20
2022-09-12T12:15:50.207Z,1.42
2022-09-12T12:18:23.881Z,1.70
2022-09-12T12:20:54.862Z,1.40
2022-09-12T12:23:32.328Z,1.20
2022-09-12T12:26:03.459Z,1.80
2022-09-12T12:29:03.502Z,1.42
2022-09-12T12:31:32.512Z,1.30
2022-09-12T12:34:31.512Z,1.38
2022-09-12T12:37:21.272Z,1.63
2022-09-12T12:40:03.341Z,1.40
2022-09-12T12:43:26.980Z,1.80
2022-09-12T12:46:14.297Z,1.40
2022-09-12T12:49:09.707Z,1.50
2022-09-12T12:51:57.231Z,1.52
2022-09-12T12:54:59.078Z,1.58
2022-09-12T12:57:50.213Z,1.60
2022-09-12T13:00:34.606Z,1.60
2022-09-12T13:03:24.158Z,1.25
2022-09-12T13:06:01.725Z,1.50
2022-09-12T13:08:34.343Z,1.40
2022-09-12T13:11:09.559Z,1.60
2022-09-12T13:13:44.513Z,1.50
2022-09-12T13:16:29.935Z,1.55
2022-09-12T13:19:08.682Z,1.55
2022-09-12T13:21:38.607Z,1.58
2022-09-12T13:24:20.052Z,1.50
2022-09-12T13:26:49.620Z,1.50
2022-09-12T13:29:20.936Z,1.58
2022-09-12T13:31:54.020Z,1.52
2022-09-12T13:34:29.246Z,1.60
2022-09-12T13:37:31.292Z,1.45
2022-09-12T13:40:17.614Z,1.45
2022-09-12T13:42:49.876Z,1.52
2022-09-12T13:45:23.224Z,1.67
2022-09-12T13:47:58.857Z,1.48
2022-09-12T13:50:40.023Z,1.60
2022-09-12T13:53:17.237Z,1.30
2022-09-12T13:55:53.803Z,1.10
2022-09-12T13:58:30.214Z,1.10
2022-09-12T14:01:07.948Z,1.20
2022-09-12T14:04:00.864Z,1.20
2022-09-12T14:06:45.484Z,1.20
2022-09-12T14:09:21.825Z,1.17
2022-09-12T14:11:54.280Z,1.10
2022-09-12T14:14:34.450Z,1.40
2022-09-12T14:17:18.983Z,1.30
2022-09-12T14:19:54.400Z,1.20
2022-09-12T14:22:24.564Z,1.20
2022-09-12T14:24:54.747Z,1.50
2022-09-12T14:27:29.328Z,1.10
2022-09-12T14:30:07.604Z,1.40
2022-09-12T14:32:37.507Z,1.67
2022-09-12T14:35:24.668Z,1.30
2022-09-12T14:37:55.195Z,1.20
2022-09-12T14:40:27.652Z,1.05
2022-09-12T14:43:00.617Z,1.20
2022-09-12T14:45:34.205Z,0.93
2022-09-12T14:48:04.439Z,1.10
2022-09-12T14:51:00.721Z,1.00
2022-09-12T14:53:38.156Z,1.10
2022-09-12T14:56:14.816Z,1.10
2022-09-12T14:58:49.391Z,1.10
2022-09-12T15:01:28.539Z,1.17
2022-09-12T15:04:40.809Z,1.15
2022-09-12T15:07:27.582Z,0.98
2022-09-12T15:10:01.578Z,1.15
2022-09-12T15:12:30.839Z,1.00
2022-09-12T15:15:14.288Z,1.17
2022-09-12T15:17:43.506Z,0.93
2022-09-12T15:20:13.317Z,1.20
2022-09-12T15:22:44.848Z,1.30
2022-09-12T15:25:15.364Z,1.45
2022-09-12T15:27:43.921Z,1.17
2022-09-12T15:30:14.806Z,1.10
2022-09-12T15:32:45.839Z,1.20
2022-09-12T15:35:18.478Z,1.30
2022-09-12T15:37:47.338Z,1.17
2022-09-12T15:40:18.185Z,1.10
2022-09-12T15:42:46.893Z,1.60
2022-09-12T15:45:23.591Z,1.25
2022-09-12T15:47:54.602Z,1.25
2022-09-12T15:50:23.341Z,1.15
2022-09-12T15:52:52.443Z,1.48
2022-09-12T15:55:26.203Z,1.20
2022-09-12T15:57:54.902Z,1.20
2022-09-12T16:00:24.103Z,1.08
2022-09-12T16:02:54.930Z,1.30
2022-09-12T16:05:31.866Z,1.38
2022-09-12T16:08:03.648Z,1.40
2022-09-12T16:10:33.747Z,1.40
2022-09-12T16:13:04.404Z,1.38
2022-09-12T16:15:34.079Z,1.20
2022-09-12T16:18:02.687Z,1.30
2022-09-12T16:20:31.263Z,1.40
2022-09-12T16:22:59.850Z,1.52
2022-09-12T16:25:28.523Z,1.70
2022-09-12T16:27:58.687Z,1.70
2022-09-12T16:30:27.814Z,1.27
2022-09-12T16:32:56.614Z,1.30
2022-09-12T16:35:25.313Z,1.40
2022-09-12T16:37:54.283Z,1.58
2022-09-12T16:40:23.612Z,1.40
2022-09-12T16:42:52.400Z,1.70
2022-09-12T16:45:22.514Z,1.50
2022-09-12T16:47:51.225Z,1.65
2022-09-12T16:50:20.041Z,1.40
2022-09-12T16:52:48.796Z,1.33
2022-09-12T16:55:21.302Z,1.50
2022-09-12T16:57:50.691Z,1.67
2022-09-12T17:00:21.092Z,2.00
2022-09-12T17:02:50.906Z,1.80
2022-09-12T17:05:20.695Z,1.90
2022-09-12T17:07:49.886Z,1.90
2022-09-12T17:10:18.959Z,1.90
2022-09-12T17:12:48.524Z,2.00
2022-09-12T17:15:17.658Z,2.03
2022-09-12T17:17:48.173Z,2.03
2022-09-12T17:20:17.558Z,1.67
2022-09-12T17:22:46.200Z,1.70
2022-09-12T17:25:14.999Z,2.15
2022-09-12T17:27:44.172Z,1.80
2022-09-12T17:30:14.115Z,1.60
2022-09-12T17:32:43.241Z,1.70
2022-09-12T17:35:13.901Z,4.73
2022-09-12T17:37:42.895Z,3.88
2022-09-12T17:40:12.594Z,8.93
2022-09-12T17:42:43.314Z,27.80
2022-09-12T17:45:18.195Z,20.48
2022-09-12T17:47:47.419Z,13.65
2022-09-12T17:50:31.308Z,6.90
2022-09-12T17:53:01.433Z,6.10
2022-09-12T17:55:32.154Z,5.23
2022-09-12T17:58:02.255Z,4.87
2022-09-12T18:00:46.193Z,3.93
2022-09-12T18:03:15.934Z,3.03
2022-09-12T18:05:50.934Z,2.30
2022-09-12T18:08:20.509Z,2.90
2022-09-12T18:10:50.018Z,2.23
2022-09-12T18:13:20.375Z,2.20
2022-09-12T18:15:50.497Z,3.00
2022-09-12T18:18:57.230Z,4.00
2022-09-12T18:21:33.799Z,5.67
2022-09-12T18:24:04.815Z,5.10
2022-09-12T18:26:34.655Z,5.10
2022-09-12T18:29:03.423Z,4.20
2022-09-12T18:31:32.846Z,4.87
2022-09-12T18:34:28.519Z,5.97
2022-09-12T18:36:59.178Z,5.90
2022-09-12T18:39:28.164Z,4.83
2022-09-12T18:41:57.478Z,3.80
2022-09-12T18:44:28.147Z,4.40
2022-09-12T18:46:56.836Z,4.07
2022-09-12T18:49:25.606Z,4.10
2022-09-12T18:51:54.472Z,4.00
2022-09-12T18:54:24.874Z,3.60
2022-09-12T18:56:54.465Z,3.80
2022-09-12T18:59:24.360Z,4.67
2022-09-12T19:01:53.324Z,5.60
2022-09-12T19:04:22.458Z,4.90
2022-09-12T19:06:53.116Z,9.27
2022-09-12T19:09:25.886Z,10.97
2022-09-12T19:11:56.338Z,7.20
2022-09-12T19:14:27.736Z,6.53
2022-09-12T19:16:58.285Z,4.93
2022-09-12T19:19:28.271Z,5.10
2022-09-12T19:21:57.814Z,4.90
2022-09-12T19:24:29.392Z,4.00
2022-09-12T19:27:09.699Z,4.00
2022-09-12T19:29:41.821Z,3.80
2022-09-12T19:32:11.758Z,4.00
2022-09-12T19:34:40.878Z,3.63
2022-09-12T19:37:09.719Z,3.80
2022-09-12T19:39:43.002Z,4.10
2022-09-12T19:42:11.930Z,3.70
2022-09-12T19:44:41.542Z,3.43
2022-09-12T19:47:11.548Z,3.73
2022-09-12T19:49:42.212Z,3.53
2022-09-12T19:52:14.354Z,3.83
2022-09-12T19:54:46.927Z,3.43
2022-09-12T19:57:15.594Z,3.93
2022-09-12T19:59:45.295Z,3.60
2022-09-12T20:02:14.449Z,3.07
2022-09-12T20:04:43.323Z,3.60
2022-09-12T20:07:12.090Z,3.63
2022-09-12T20:09:40.779Z,3.60
2022-09-12T20:12:11.004Z,3.53
2022-09-12T20:14:39.600Z,3.40
2022-09-12T20:17:08.458Z,3.37
2022-09-12T20:19:37.377Z,3.40
2022-09-12T20:22:06.034Z,3.20
2022-09-12T20:24:35.633Z,2.97
2022-09-12T20:27:06.271Z,3.10
2022-09-12T20:29:36.319Z,3.40
2022-09-12T20:32:05.009Z,3.60
2022-09-12T20:34:33.650Z,3.20
2022-09-12T20:37:02.408Z,3.17
2022-09-12T20:39:31.198Z,3.10
2022-09-12T20:41:59.839Z,2.87
2022-09-12T20:44:30.322Z,3.67
2022-09-12T20:47:00.475Z,3.50
2022-09-12T20:49:29.159Z,3.63
2022-09-12T20:51:57.788Z,3.20
2022-09-12T20:54:26.499Z,3.27
2022-09-12T20:56:56.186Z,3.17
2022-09-12T20:59:24.806Z,3.50
2022-09-12T21:01:53.451Z,3.63
2022-09-12T21:04:23.994Z,3.20
2022-09-12T21:06:52.754Z,3.30
2022-09-12T21:09:21.509Z,3.43
2022-09-12T21:11:50.508Z,3.10
2022-09-12T21:14:19.023Z,3.60
2022-09-12T21:16:47.666Z,3.40
2022-09-12T21:19:16.982Z,3.70
2022-09-12T21:21:47.094Z,3.10
2022-09-12T21:24:16.087Z,3.03
2022-09-12T21:26:44.653Z,3.50
2022-09-12T21:29:13.614Z,3.20
2022-09-12T21:31:44.070Z,3.70
2022-09-12T21:34:12.946Z,3.03
2022-09-12T21:36:41.549Z,2.93
2022-09-12T21:39:11.677Z,3.40
2022-09-12T21:41:40.343Z,3.03
2022-09-12T21:44:09.490Z,3.40
2022-09-12T21:46:38.229Z,2.90
2022-09-12T21:49:07.044Z,3.47
2022-09-12T21:51:37.723Z,3.07
2022-09-12T21:54:06.835Z,3.20
2022-09-12T21:56:36.839Z,2.87
2022-09-12T21:59:05.622Z,3.27
2022-09-12T22:01:34.286Z,3.17
2022-09-12T22:04:03.111Z,3.20
2022-09-12T22:06:31.750Z,3.20
2022-09-12T22:09:00.371Z,2.80
2022-09-12T22:11:29.037Z,2.70
2022-09-12T22:13:59.061Z,2.77
2022-09-12T22:16:27.807Z,2.70
2022-09-12T22:18:57.920Z,3.03
2022-09-12T22:21:26.551Z,3.20
2022-09-12T22:24:12.323Z,3.00
2022-09-12T22:26:46.219Z,2.83
2022-09-12T22:29:16.281Z,3.03
2022-09-12T22:31:44.972Z,2.80
2022-09-12T22:34:13.730Z,2.80
2022-09-12T22:36:42.750Z,2.67
2022-09-12T22:39:11.414Z,2.80
2022-09-12T22:41:40.107Z,2.60
2022-09-12T22:44:08.719Z,2.67
2022-09-12T22:46:39.639Z,2.40
2022-09-12T22:49:08.864Z,2.70
2022-09-12T22:51:37.673Z,2.80
2022-09-12T22:54:06.886Z,2.40
2022-09-12T22:56:35.681Z,2.60
2022-09-12T22:59:04.592Z,2.80
2022-09-12T23:01:33.297Z,2.60
2022-09-12T23:04:04.216Z,2.63
2022-09-12T23:06:32.881Z,2.40
2022-09-12T23:09:01.880Z,2.60
2022-09-12T23:11:30.531Z,2.53
2022-09-12T23:13:59.129Z,2.30
2022-09-12T23:16:28.539Z,2.70
2022-09-12T23:18:57.317Z,2.70
2022-09-12T23:21:27.438Z,2.53
2022-09-12T23:23:56.335Z,2.60
2022-09-12T23:26:28.283Z,2.30
2022-09-12T23:28:59.520Z,2.40
2022-09-12T23:31:31.013Z,2.97
2022-09-12T23:34:03.109Z,2.60
2022-09-12T23:36:34.282Z,2.73
2022-09-12T23:39:03.003Z,2.47
2022-09-12T23:41:31.738Z,2.70
2022-09-12T23:44:00.745Z,2.80
2022-09-12T23:46:29.475Z,3.03
2022-09-12T23:48:58.104Z,2.80
2022-09-12T23:51:27.217Z,2.90
2022-09-12T23:53:57.271Z,2.43
2022-09-12T23:56:26.172Z,2.80
2022-09-12T23:58:54.735Z,2.60
